My Meet Scores
Makenna Araiza, Naperville Gymnastics Club - MyMeetScores.com
Top100 | Top Teams | Upcoming Meets | Completed Meets | Latest | Add Scores | Help| Support | Bookmark and Share

Makenna Araiza, Naperville Gymnastics Club
Personal Bests
LevelVault BarsBeamFloorAA
39.4509.625 9.5509.47538.000
49.5009.725 9.6509.57537.950
79.4759.725 9.6509.55037.800
89.2509.550 9.1758.67536.650
99.4509.050 8.9258.70034.975
HP11.80010.350 10.40010.35040.700
Elite9.5258.150 7.8508.27533.800
Meet Scores
Date Meet Team Session Level Division Vault Bars Beam Floor AA
2020-03-12 2020 KPAC Cup National Elite Qualifier Naperville Gymnastics Club 2 HP 10-11 11.800 4 10.350 3 8.200 5 10.350 5 40.700 4
2020-03-06 2020 Flip'r Invitational Naperville Gymnastics Club 5 9 CHILD 9.450 1 8.950 3 8.300 5 8.275 5T 34.975 4
2020-02-14 Excalibur Cup Naperville Gymnastics Club 06E HP 10-11 yrs 10.300 3 7.350 4 10.400 2 9.750 2 37.800 3
2020-02-14 Excalibur Cup Naperville Gymnastics Club 09D 9 Jr A 9.200 6T 9.050 3 8.025 9 8.700 6 34.975 6
2020-01-31 Buckeye Classic Naperville Gymnastics Club SC2 9 A 9.000 8 8.250 9 8.925 6 7.825 15 34.000 10
2020-01-31 Buckeye Classic Naperville Gymnastics Club FC1 Elite Sr 9.525 10 8.150 11 7.850 18 8.275 15 33.800 12
2020-01-17 2020 Bravo Classic Naperville Gymnastics Club 7A 9 Jr 8.450 11 8.800 4 8.250 12T 8.450 15T 33.950 10
2020-01-10 Leenda's Island Adventure Naperville Gymnastics Club PG3 8 11 & Under 9.250 1 9.550 1 9.175 3 8.675 9 36.650 2T
2019-04-26 Level 7/8 Region 5 Regionals Legacy Elite Gymnastics LLC 9A 7 JRA1 9.475 15T 9.400 5T 9.650 5T 9.275 25T 37.800 9
2019-03-29 Illinois Level 7 & 8 State Meet Legacy Elite Gymnastics LLC 6 7 Jr A 9.150 12 9.475 3 9.375 10 9.325 15T 37.325 9
2019-03-08 Lucky Invite Legacy Elite Gymnastics LLC A02 7 Jr A 8.600 18 9.700 1 9.325 11T 9.050 20 36.675 13
2019-02-15 Women's Midwest Open GymNasti 02 7 Junior A 8.200 15 9.725 1 9.250 7 8.950 12 36.125 5T
2019-01-25 King Arthur Invitational GymNasti 5 7 CH 0.000 15 9.500 2 0.000 15 0.000 15 9.500 15
2018-12-07 St. Nick Invite 2018 GymNasti 6B 7 JrA 7.900 12 9.600 2 9.425 4 9.550 3 36.475 6
2018-03-08 Level 4 & 5 State GymNasti All 4 Ch A 9.225 4T 9.350 3T 9.475 4 9.425 2T 37.475 3
2018-02-23 Kinetic Classic GymNasti 6 4 Younger 9.500 2 9.550 1 9.325 9 9.575 5T 37.950 2
2018-02-17 Women's Midwest Open GymNasti 12 4 Jr A 9.325 1 9.600 1 9.075 6T 9.350 3 37.350 1
2018-01-26 King Arthur Invitational GymNasti 2 4 Jr A 9.000 2 8.900 3 9.225 3 9.350 2 36.475 2
2018-01-12 St Jude Benefit Meet GymNasti 2A 4 JrA 9.100 1 9.725 1 9.650 1 9.375 1 37.850 1
2017-12-08 St. Nick Invite GymNasti 7A 4 JrA 9.125 4 9.525 2 9.350 6 9.450 3 37.450 3
2017-03-30 2017 Illinois Level 3 & 5 State GymNasti All 3 Ch A 9.175 15T 9.625 4 9.475 1 9.250 6 37.525 6
2017-02-17 Midwest Open GymNasti 1A 3 JR A 9.250 5 9.325 1 9.425 1 9.450 1 37.450 1
2017-02-10 IGI Chicago Style Gymnastics Meet GymNasti 212L 3 JrA 9.050 8 8.800 10 9.450 1 8.775 13 36.075 9
2017-01-20 2017 Bravo Classic GymNasti 10B 3 6-7yrs 9.425 4 9.550 5 9.550 3 9.475 3 38.000 3
2017-01-13 St Jude Benefit Meet GymNasti 7A 3 Jr A 8.925 6T 9.450 3 9.225 1 9.150 4 36.750 1
2016-12-09 St. Nick Invite GymNasti 5 3 All 9.450 21T 9.475 9 9.250 26T 9.200 22T 37.375 16T
Get your scores on
a t-shirt, pin, or hoodie

www.lazysuits.com